createdAt,value
2022-11-20T00:00:29.815Z,14.48
2022-11-20T00:03:03.976Z,15.30
2022-11-20T00:05:35.279Z,18.77
2022-11-20T00:08:07.038Z,18.30
2022-11-20T00:13:13.059Z,17.00
2022-11-20T00:15:48.810Z,20.75
2022-11-20T00:18:18.086Z,20.50
2022-11-20T00:20:47.294Z,7.55
2022-11-20T00:23:18.476Z,7.70
2022-11-20T00:25:47.725Z,7.18
2022-11-20T00:28:16.767Z,7.03
2022-11-20T00:30:46.095Z,11.00
2022-11-20T00:33:15.324Z,11.18
2022-11-20T00:35:54.568Z,7.75
2022-11-20T00:38:25.771Z,10.43
2022-11-20T00:40:59.147Z,6.65
2022-11-20T00:43:29.102Z,9.20
2022-11-20T00:46:04.220Z,10.98
2022-11-20T00:48:33.715Z,8.43
2022-11-20T00:51:02.812Z,8.02
2022-11-20T00:53:39.044Z,6.90
2022-11-20T00:56:10.804Z,7.05
2022-11-20T01:01:17.532Z,7.15
2022-11-20T01:03:53.625Z,9.10
2022-11-20T01:06:24.894Z,7.93
2022-11-20T01:09:03.341Z,7.03
2022-11-20T01:11:34.294Z,5.93
2022-11-20T01:14:05.532Z,7.25
2022-11-20T01:16:41.945Z,5.63
2022-11-20T01:19:17.911Z,10.27
2022-11-20T01:21:48.852Z,9.40
2022-11-20T01:24:22.382Z,10.45
2022-11-20T01:26:53.367Z,10.02
2022-11-20T01:29:32.922Z,10.15
2022-11-20T01:32:02.020Z,10.23
2022-11-20T01:34:31.658Z,9.95
2022-11-20T01:37:06.001Z,9.48
2022-11-20T01:39:37.098Z,8.35
2022-11-20T01:42:24.510Z,9.07
2022-11-20T01:44:57.433Z,9.55
2022-11-20T01:47:32.591Z,8.73
2022-11-20T01:50:08.297Z,10.75
2022-11-20T01:52:43.497Z,11.05
2022-11-20T01:55:19.389Z,9.32
2022-11-20T02:00:26.362Z,9.30
2022-11-20T02:02:59.991Z,6.65
2022-11-20T02:05:35.960Z,9.70
2022-11-20T02:08:06.677Z,6.82
2022-11-20T02:10:38.447Z,8.15
2022-11-20T02:15:50.559Z,6.00
2022-11-20T02:18:22.383Z,6.03
2022-11-20T02:23:30.992Z,5.43
2022-11-20T02:26:12.737Z,7.35
2022-11-20T02:28:42.354Z,6.60
2022-11-20T02:31:11.495Z,7.70
2022-11-20T02:33:41.002Z,6.13
2022-11-20T02:36:14.615Z,7.97
2022-11-20T02:38:44.916Z,5.03
2022-11-20T02:41:15.867Z,7.28
2022-11-20T02:43:44.901Z,8.30
2022-11-20T02:46:14.276Z,8.02
2022-11-20T02:48:43.334Z,5.75
2022-11-20T02:51:12.428Z,5.50
2022-11-20T02:53:46.824Z,8.63
2022-11-20T02:56:18.781Z,7.28
2022-11-20T03:01:17.105Z,5.15
2022-11-20T03:03:46.356Z,3.65
2022-11-20T03:06:15.983Z,7.30
2022-11-20T03:08:45.373Z,5.60
2022-11-20T03:11:14.420Z,7.60
2022-11-20T03:13:45.778Z,6.53
2022-11-20T03:16:16.780Z,8.10
2022-11-20T03:18:47.052Z,5.80
2022-11-20T03:21:18.096Z,6.95
2022-11-20T03:23:52.442Z,5.43
2022-11-20T03:26:23.317Z,6.90
2022-11-20T03:29:01.160Z,6.17
2022-11-20T03:31:32.473Z,7.57
2022-11-20T03:34:02.635Z,7.30
2022-11-20T03:36:32.698Z,6.85
2022-11-20T03:39:02.205Z,7.90
2022-11-20T03:41:33.136Z,6.07
2022-11-20T03:44:07.524Z,7.27
2022-11-20T03:46:47.271Z,7.05
2022-11-20T03:49:16.332Z,7.43
2022-11-20T03:51:45.659Z,6.80
2022-11-20T03:54:19.963Z,7.55
2022-11-20T03:56:49.124Z,5.63
2022-11-20T03:59:20.532Z,5.95
2022-11-20T04:01:49.910Z,9.05
2022-11-20T04:04:21.071Z,6.40
2022-11-20T04:06:50.302Z,6.47
2022-11-20T04:09:19.960Z,7.90
2022-11-20T04:11:49.577Z,7.40
2022-11-20T04:14:22.139Z,6.28
2022-11-20T04:16:51.456Z,7.55
2022-11-20T04:19:20.820Z,6.68
2022-11-20T04:21:50.293Z,4.63
2022-11-20T04:24:19.369Z,7.22
2022-11-20T04:26:48.605Z,7.15
2022-11-20T04:29:20.031Z,6.65
2022-11-20T04:31:49.436Z,8.23
2022-11-20T04:34:18.531Z,6.78
2022-11-20T04:36:52.761Z,6.40
2022-11-20T04:39:21.974Z,4.63
2022-11-20T04:42:11.723Z,6.97
2022-11-20T04:44:42.984Z,6.40
2022-11-20T04:47:18.005Z,6.00
2022-11-20T04:49:47.246Z,10.77
2022-11-20T04:52:16.369Z,6.72
2022-11-20T04:54:45.601Z,6.45
2022-11-20T04:57:16.830Z,7.03
2022-11-20T04:59:53.101Z,6.15
2022-11-20T05:02:23.013Z,7.13
2022-11-20T05:04:52.137Z,7.70
2022-11-20T05:09:56.061Z,7.10
2022-11-20T05:12:25.304Z,8.82
2022-11-20T05:14:56.786Z,7.30
2022-11-20T05:17:26.129Z,5.68
2022-11-20T05:19:55.356Z,6.00
2022-11-20T05:22:24.891Z,7.95
2022-11-20T05:24:54.122Z,9.15
2022-11-20T05:27:28.399Z,8.05
2022-11-20T05:29:59.428Z,5.68
2022-11-20T05:32:33.817Z,7.43
2022-11-20T05:35:03.228Z,7.78
2022-11-20T05:37:32.363Z,8.23
2022-11-20T05:42:44.194Z,6.75
2022-11-20T05:45:15.542Z,5.82
2022-11-20T05:47:44.830Z,5.72
2022-11-20T05:50:13.932Z,8.25
2022-11-20T05:52:48.253Z,6.40
2022-11-20T05:55:17.587Z,6.50
2022-11-20T05:57:46.718Z,6.82
2022-11-20T06:00:18.982Z,5.50
2022-11-20T06:02:48.388Z,5.88
2022-11-20T06:05:17.675Z,6.65
2022-11-20T06:07:46.886Z,7.03
2022-11-20T06:10:18.522Z,8.20
2022-11-20T06:12:47.740Z,6.20
2022-11-20T06:15:19.026Z,7.85
2022-11-20T06:17:48.197Z,6.30
2022-11-20T06:20:17.396Z,8.50
2022-11-20T06:22:46.613Z,8.23
2022-11-20T06:25:16.073Z,8.55
2022-11-20T06:27:45.441Z,9.38
2022-11-20T06:30:15.751Z,10.77
2022-11-20T06:32:47.176Z,6.90
2022-11-20T06:35:16.465Z,7.78
2022-11-20T06:37:45.629Z,6.97
2022-11-20T06:40:15.590Z,7.35
2022-11-20T06:42:44.705Z,6.63
2022-11-20T06:45:13.942Z,7.72
2022-11-20T06:47:43.221Z,7.53
2022-11-20T06:50:15.117Z,7.78
2022-11-20T06:52:50.830Z,7.15
2022-11-20T06:55:20.013Z,8.55
2022-11-20T06:57:56.001Z,10.82
2022-11-20T07:00:25.349Z,8.70
2022-11-20T07:02:54.530Z,10.73
2022-11-20T07:05:25.664Z,7.55
2022-11-20T07:07:54.998Z,5.65
2022-11-20T07:10:24.140Z,8.48
2022-11-20T07:12:53.922Z,8.10
2022-11-20T07:15:24.635Z,7.75
2022-11-20T07:17:54.081Z,9.63
2022-11-20T07:20:23.242Z,7.38
2022-11-20T07:22:58.882Z,9.27
2022-11-20T07:25:29.118Z,7.53
2022-11-20T07:28:00.215Z,8.20
2022-11-20T07:30:31.261Z,7.65
2022-11-20T07:33:05.727Z,8.00
2022-11-20T07:35:35.057Z,7.32
2022-11-20T07:38:11.219Z,7.18
2022-11-20T07:40:40.834Z,9.32
2022-11-20T07:43:10.001Z,7.72
2022-11-20T07:45:44.361Z,9.25
2022-11-20T07:48:13.614Z,9.35
2022-11-20T07:50:42.892Z,8.48
2022-11-20T07:53:19.547Z,7.78
2022-11-20T07:55:48.811Z,8.18
2022-11-20T07:58:17.870Z,9.48
2022-11-20T08:00:47.030Z,7.65
2022-11-20T08:03:20.287Z,9.13
2022-11-20T08:05:53.452Z,7.18
2022-11-20T08:08:25.760Z,8.63
2022-11-20T08:11:15.190Z,7.80
2022-11-20T08:13:57.251Z,7.50
2022-11-20T08:16:26.953Z,8.35
2022-11-20T08:18:56.748Z,10.75
2022-11-20T08:21:36.719Z,11.50
2022-11-20T08:24:11.072Z,9.77
2022-11-20T08:26:41.178Z,9.48
2022-11-20T08:29:10.563Z,9.95
2022-11-20T08:31:39.747Z,10.32
2022-11-20T08:34:09.859Z,10.55
2022-11-20T08:36:39.744Z,11.30
2022-11-20T08:39:10.834Z,10.73
2022-11-20T08:41:40.024Z,10.20
2022-11-20T08:44:10.456Z,11.32
2022-11-20T08:46:41.620Z,12.10
2022-11-20T08:49:12.392Z,11.00
2022-11-20T08:51:42.319Z,9.67
2022-11-20T08:54:14.000Z,10.43
2022-11-20T08:56:43.319Z,10.73
2022-11-20T08:59:50.881Z,11.05
2022-11-20T09:02:01.745Z,9.68
2022-11-20T09:04:31.962Z,9.50
2022-11-20T09:07:12.400Z,9.23
2022-11-20T09:09:43.473Z,9.40
2022-11-20T09:12:18.847Z,9.07
2022-11-20T09:14:52.168Z,8.98
2022-11-20T09:17:24.347Z,9.57
2022-11-20T09:19:53.500Z,9.10
2022-11-20T09:22:22.605Z,9.15
2022-11-20T09:24:53.832Z,9.77
2022-11-20T09:27:23.817Z,9.32
2022-11-20T09:29:52.868Z,9.63
2022-11-20T09:32:22.056Z,8.80
2022-11-20T09:34:51.638Z,8.95
2022-11-20T09:37:20.822Z,8.75
2022-11-20T09:39:50.107Z,9.13
2022-11-20T09:42:44.156Z,8.52
2022-11-20T09:45:23.291Z,8.63
2022-11-20T09:48:11.996Z,8.23
2022-11-20T09:50:49.603Z,9.70
2022-11-20T09:53:26.304Z,9.77
2022-11-20T09:56:00.592Z,9.73
2022-11-20T09:58:43.390Z,9.68
2022-11-20T10:01:15.532Z,9.63
2022-11-20T10:03:53.477Z,10.35
2022-11-20T10:06:27.401Z,10.63
2022-11-20T10:09:07.249Z,10.77
2022-11-20T10:11:49.540Z,11.93
2022-11-20T10:14:35.204Z,10.93
2022-11-20T10:17:15.558Z,11.05
2022-11-20T10:19:57.779Z,11.13
2022-11-20T10:22:50.200Z,10.75
2022-11-20T10:25:22.311Z,11.68
2022-11-20T10:28:19.529Z,13.10
2022-11-20T10:30:58.161Z,13.07
2022-11-20T10:33:49.986Z,13.05
2022-11-20T10:36:25.455Z,13.52
2022-11-20T10:39:00.655Z,12.52
2022-11-20T10:41:37.074Z,14.20
2022-11-20T10:44:12.732Z,13.85
2022-11-20T10:46:47.544Z,13.63
2022-11-20T10:49:31.809Z,14.52
2022-11-20T10:52:10.158Z,12.90
2022-11-20T10:54:48.867Z,13.25
2022-11-20T10:57:27.670Z,13.55
2022-11-20T11:00:06.097Z,13.55
2022-11-20T11:02:44.468Z,14.40
2022-11-20T11:05:23.422Z,13.07
2022-11-20T11:07:58.037Z,13.65
2022-11-20T11:10:39.092Z,13.73
2022-11-20T11:13:08.322Z,14.63
2022-11-20T11:15:42.374Z,14.05
2022-11-20T11:18:14.573Z,13.43
2022-11-20T11:20:53.380Z,13.52
2022-11-20T11:23:37.993Z,14.65
2022-11-20T11:26:10.195Z,15.07
2022-11-20T11:28:39.715Z,14.70
2022-11-20T11:31:08.996Z,15.63
2022-11-20T11:33:40.277Z,15.93
2022-11-20T11:36:21.347Z,16.60
2022-11-20T11:39:00.758Z,15.20
2022-11-20T11:41:35.433Z,15.65
2022-11-20T11:44:32.917Z,15.88
2022-11-20T11:47:03.123Z,13.90
2022-11-20T11:49:35.690Z,14.02
2022-11-20T11:52:14.482Z,15.15
2022-11-20T11:54:53.988Z,14.93
2022-11-20T11:57:39.498Z,14.98
2022-11-20T12:00:12.727Z,14.02
2022-11-20T12:02:55.479Z,13.05
2022-11-20T12:05:33.741Z,13.27
2022-11-20T12:08:12.566Z,12.10
2022-11-20T12:10:48.100Z,12.88
2022-11-20T12:13:48.068Z,12.70
2022-11-20T12:16:20.828Z,13.18
2022-11-20T12:18:52.382Z,13.95
2022-11-20T12:21:33.979Z,12.57
2022-11-20T12:24:23.625Z,12.40
2022-11-20T12:27:05.183Z,10.20
2022-11-20T12:29:50.641Z,12.02
2022-11-20T12:32:44.989Z,6.55
2022-11-20T12:35:37.620Z,5.53
2022-11-20T12:38:38.756Z,7.10
2022-11-20T12:41:39.291Z,10.50
2022-11-20T12:44:40.091Z,8.75
2022-11-20T12:47:24.523Z,9.63
2022-11-20T12:55:40.811Z,9.40
2022-11-20T12:58:18.460Z,9.77
2022-11-20T13:01:01.471Z,9.73
2022-11-20T13:03:45.221Z,10.13
2022-11-20T13:06:18.410Z,17.17
2022-11-20T13:08:56.449Z,18.80
2022-11-20T13:11:35.264Z,23.13
2022-11-20T13:14:17.088Z,21.20
2022-11-20T13:16:55.115Z,23.02
2022-11-20T13:19:30.321Z,26.23
2022-11-20T13:21:59.586Z,22.65
2022-11-20T13:24:30.727Z,20.73
2022-11-20T13:27:07.127Z,22.95
2022-11-20T13:29:37.350Z,23.27
2022-11-20T13:32:18.010Z,21.55
2022-11-20T13:34:56.514Z,22.42
2022-11-20T13:37:31.587Z,22.88
2022-11-20T13:40:16.726Z,25.73
2022-11-20T13:42:58.408Z,24.00
2022-11-20T13:45:30.081Z,23.20
2022-11-20T13:50:46.333Z,20.17
2022-11-20T13:53:33.733Z,21.13
2022-11-20T13:56:08.062Z,22.50
2022-11-20T13:58:59.316Z,23.83
2022-11-20T14:01:35.104Z,22.88
2022-11-20T14:04:15.932Z,23.25
2022-11-20T14:06:47.653Z,22.25
2022-11-20T14:09:29.319Z,19.90
2022-11-20T14:11:59.478Z,21.52
2022-11-20T14:14:31.614Z,24.55
2022-11-20T14:17:09.455Z,22.27
2022-11-20T14:19:48.578Z,23.85
2022-11-20T14:22:23.464Z,25.85
2022-11-20T14:25:06.062Z,23.73
2022-11-20T14:27:39.171Z,26.08
2022-11-20T14:30:17.115Z,26.40
2022-11-20T14:32:47.983Z,24.30
2022-11-20T14:35:24.547Z,19.50
2022-11-20T14:37:55.785Z,24.58
2022-11-20T14:40:28.807Z,25.83
2022-11-20T14:42:59.065Z,23.67
2022-11-20T14:45:31.257Z,23.27
2022-11-20T14:48:05.979Z,23.85
2022-11-20T14:50:35.137Z,24.50
2022-11-20T14:53:04.813Z,25.15
2022-11-20T14:55:37.089Z,24.80
2022-11-20T14:58:08.119Z,24.58
2022-11-20T15:00:39.300Z,27.95
2022-11-20T15:03:18.707Z,26.35
2022-11-20T15:05:50.047Z,24.73
2022-11-20T15:08:20.925Z,25.70
2022-11-20T15:10:51.765Z,26.67
2022-11-20T15:13:34.800Z,26.15
2022-11-20T15:16:11.387Z,25.20
2022-11-20T15:18:45.992Z,26.33
2022-11-20T15:21:17.667Z,31.55
2022-11-20T15:23:47.736Z,30.80
2022-11-20T15:26:26.258Z,26.63
2022-11-20T15:28:55.783Z,26.20
2022-11-20T15:31:32.326Z,26.23
2022-11-20T15:34:01.834Z,29.10
2022-11-20T15:36:31.176Z,25.23
2022-11-20T15:39:00.471Z,24.77
2022-11-20T15:41:29.629Z,25.92
2022-11-20T15:43:58.868Z,21.92
2022-11-20T15:46:38.755Z,24.33
2022-11-20T15:49:11.399Z,21.20
2022-11-20T15:51:41.941Z,20.38
2022-11-20T15:54:14.106Z,27.42
2022-11-20T15:56:43.423Z,22.88
2022-11-20T15:59:13.011Z,23.05
2022-11-20T16:01:45.334Z,26.63
2022-11-20T16:04:16.626Z,20.13
2022-11-20T16:06:45.889Z,20.20
2022-11-20T16:09:15.661Z,23.35
2022-11-20T16:11:45.125Z,24.35
2022-11-20T16:14:27.679Z,15.82
2022-11-20T16:16:59.014Z,21.88
2022-11-20T16:19:30.670Z,27.50
2022-11-20T16:22:02.951Z,24.10
2022-11-20T16:24:33.167Z,23.50
2022-11-20T16:27:04.595Z,17.67
2022-11-20T16:29:33.939Z,21.50
2022-11-20T16:32:05.391Z,21.55
2022-11-20T16:34:35.595Z,15.85
2022-11-20T16:37:04.909Z,21.52
2022-11-20T16:39:34.716Z,20.80
2022-11-20T16:42:09.234Z,18.80
2022-11-20T16:44:38.285Z,21.73
2022-11-20T16:47:09.478Z,19.80
2022-11-20T16:49:43.757Z,18.63
2022-11-20T16:52:14.265Z,21.23
2022-11-20T16:54:43.819Z,20.83
2022-11-20T16:57:13.299Z,18.92
2022-11-20T16:59:42.727Z,13.73
2022-11-20T17:02:19.869Z,19.88
2022-11-20T17:04:55.833Z,19.65
2022-11-20T17:07:25.039Z,15.35
2022-11-20T17:09:54.297Z,17.23
2022-11-20T17:12:23.811Z,16.08
2022-11-20T17:14:53.592Z,16.85
2022-11-20T17:17:30.112Z,19.67
2022-11-20T17:19:59.419Z,16.38
2022-11-20T17:22:28.681Z,20.98
2022-11-20T17:25:00.896Z,19.73
2022-11-20T17:27:31.612Z,16.45
2022-11-20T17:30:01.027Z,8.27
2022-11-20T17:32:32.670Z,12.15
2022-11-20T17:35:07.018Z,11.60
2022-11-20T17:37:36.281Z,11.70
2022-11-20T17:40:07.094Z,14.68
2022-11-20T17:45:14.036Z,18.10
2022-11-20T17:47:46.184Z,19.10
2022-11-20T17:50:15.817Z,15.82
2022-11-20T17:52:44.981Z,18.02
2022-11-20T17:55:14.628Z,12.20
2022-11-20T17:58:02.186Z,9.68
2022-11-20T18:00:34.393Z,9.90
2022-11-20T18:03:06.062Z,9.05
2022-11-20T18:05:35.280Z,10.55
2022-11-20T18:08:04.533Z,7.15
2022-11-20T18:10:34.837Z,8.73
2022-11-20T18:13:04.192Z,13.23
2022-11-20T18:15:33.477Z,12.40
2022-11-20T18:18:09.876Z,13.70
2022-11-20T18:20:40.130Z,13.45
2022-11-20T18:23:14.865Z,13.32
2022-11-20T18:25:47.059Z,10.35
2022-11-20T18:28:16.364Z,10.93
2022-11-20T18:30:45.788Z,12.68
2022-11-20T18:33:18.335Z,11.00
2022-11-20T18:35:47.731Z,10.13
2022-11-20T18:38:17.211Z,11.63
2022-11-20T18:40:47.178Z,13.05
2022-11-20T18:43:29.288Z,11.80
2022-11-20T18:46:04.699Z,12.40
2022-11-20T18:48:41.560Z,11.15
2022-11-20T18:51:15.953Z,10.10
2022-11-20T18:53:47.533Z,10.15
2022-11-20T18:56:23.827Z,9.93
2022-11-20T18:58:54.649Z,12.60
2022-11-20T19:01:24.111Z,16.40
2022-11-20T19:03:55.651Z,12.32
2022-11-20T19:06:25.670Z,13.80
2022-11-20T19:08:55.800Z,15.05
2022-11-20T19:11:25.057Z,18.90
2022-11-20T19:13:54.644Z,12.95
2022-11-20T19:16:29.095Z,14.93
2022-11-20T19:19:03.452Z,11.77
2022-11-20T19:21:33.440Z,13.57
2022-11-20T19:24:04.908Z,13.35
2022-11-20T19:26:38.942Z,11.02
2022-11-20T19:29:08.723Z,13.80
2022-11-20T19:31:38.677Z,12.77
2022-11-20T19:34:11.904Z,11.23
2022-11-20T19:36:44.903Z,13.70
2022-11-20T19:39:15.142Z,16.55
2022-11-20T19:41:45.015Z,15.15
2022-11-20T19:44:16.996Z,14.98
2022-11-20T19:46:46.912Z,18.83
2022-11-20T19:49:18.198Z,17.48
2022-11-20T19:51:52.611Z,13.45
2022-11-20T19:54:26.994Z,18.95
2022-11-20T19:56:56.141Z,20.25
2022-11-20T19:59:25.869Z,18.42
2022-11-20T20:01:55.633Z,15.70
2022-11-20T20:04:26.857Z,20.77
2022-11-20T20:06:56.201Z,17.17
2022-11-20T20:09:29.349Z,15.90
2022-11-20T20:12:03.962Z,12.07
2022-11-20T20:14:34.376Z,15.20
2022-11-20T20:17:03.668Z,19.55
2022-11-20T20:19:35.345Z,18.20
2022-11-20T20:22:04.599Z,14.82
2022-11-20T20:24:33.803Z,15.48
2022-11-20T20:27:03.278Z,13.48
2022-11-20T20:29:32.401Z,18.20
2022-11-20T20:32:01.885Z,19.02
2022-11-20T20:34:31.727Z,15.38
2022-11-20T20:37:03.666Z,18.17
2022-11-20T20:39:33.037Z,17.20
2022-11-20T20:42:02.321Z,15.65
2022-11-20T20:44:44.592Z,15.15
2022-11-20T20:47:13.755Z,15.85
2022-11-20T20:49:43.307Z,14.50
2022-11-20T20:52:14.732Z,13.85
2022-11-20T20:54:43.969Z,21.63
2022-11-20T20:57:13.115Z,13.02
2022-11-20T20:59:42.397Z,12.85
2022-11-20T21:02:12.811Z,17.90
2022-11-20T21:04:42.270Z,13.93
2022-11-20T21:07:13.530Z,14.45
2022-11-20T21:09:47.930Z,13.77
2022-11-20T21:12:17.085Z,11.27
2022-11-20T21:14:48.700Z,13.57
2022-11-20T21:20:22.947Z,13.45
2022-11-20T21:22:52.291Z,11.35
2022-11-20T21:25:21.456Z,11.55
2022-11-20T21:27:55.816Z,15.48
2022-11-20T21:30:25.003Z,13.65
2022-11-20T21:32:54.180Z,16.67
2022-11-20T21:35:23.394Z,9.10
2022-11-20T21:37:54.637Z,13.32
2022-11-20T21:40:29.204Z,9.55
2022-11-20T21:42:58.725Z,10.98
2022-11-20T21:45:27.911Z,11.25
2022-11-20T21:47:57.915Z,10.73
2022-11-20T21:50:27.078Z,14.57
2022-11-20T21:52:58.308Z,17.65
2022-11-20T21:55:27.470Z,10.32
2022-11-20T21:57:56.564Z,11.95
2022-11-20T22:00:25.862Z,15.38
2022-11-20T22:02:54.958Z,11.27
2022-11-20T22:05:24.168Z,11.65
2022-11-20T22:07:53.773Z,14.25
2022-11-20T22:10:27.475Z,15.10
2022-11-20T22:13:17.852Z,15.10
2022-11-20T22:16:00.403Z,14.07
2022-11-20T22:18:30.340Z,15.10
2022-11-20T22:20:59.607Z,16.98
2022-11-20T22:23:31.919Z,16.30
2022-11-20T22:26:06.409Z,15.93
2022-11-20T22:28:42.437Z,16.63
2022-11-20T22:31:13.022Z,17.63
2022-11-20T22:33:42.634Z,17.88
2022-11-20T22:36:20.950Z,17.95
2022-11-20T22:38:51.649Z,19.83
2022-11-20T22:41:24.616Z,16.33
2022-11-20T22:44:00.466Z,16.60
2022-11-20T22:46:31.391Z,17.00
2022-11-20T22:49:08.138Z,16.40
2022-11-20T22:51:39.584Z,16.45
2022-11-20T22:54:09.679Z,16.13
2022-11-20T22:56:41.035Z,16.83
2022-11-20T22:59:10.936Z,16.50
2022-11-20T23:01:40.300Z,17.35
2022-11-20T23:04:12.873Z,18.40
2022-11-20T23:06:42.459Z,16.90
2022-11-20T23:09:12.463Z,17.80
2022-11-20T23:11:43.678Z,14.52
2022-11-20T23:14:16.257Z,15.40
2022-11-20T23:16:50.757Z,14.98
2022-11-20T23:19:22.144Z,13.27
2022-11-20T23:21:51.331Z,15.65
2022-11-20T23:24:20.894Z,14.93
2022-11-20T23:26:52.286Z,15.00
2022-11-20T23:29:21.544Z,14.48
2022-11-20T23:31:50.778Z,14.48
2022-11-20T23:34:20.215Z,13.63
2022-11-20T23:36:49.365Z,13.85
2022-11-20T23:39:18.618Z,13.07
2022-11-20T23:41:52.783Z,13.65
2022-11-20T23:44:24.991Z,13.50
2022-11-20T23:46:54.508Z,14.02
2022-11-20T23:49:23.622Z,14.75
2022-11-20T23:51:52.836Z,14.57
2022-11-20T23:54:22.271Z,14.15
2022-11-20T23:56:51.868Z,15.25
2022-11-20T23:59:21.117Z,14.73
